Time;durP1;ratioP1;P1;durP2;ratioP2;P2;SDS_P1;SDS_P2;PMS_P1;PMS_P2;Temp;Humidity;BMP_temperature;BMP_pressure;BME280_temperature;BME280_humidity;BME280_pressure;Samples;Min_cycle;Max_cycle;Signal;HPM_P1;HPM_P2
2021/08/18 00:00:14;;;;;;;16.13;13.40;;;16.90;85.70;;;;;;5021979;28;20193;-87
2021/08/18 00:02:39;;;;;;;15.77;14.00;;;17.00;85.80;;;;;;5021387;28;20221;-86
2021/08/18 00:05:08;;;;;;;18.17;14.43;;;17.00;85.50;;;;;;5020995;28;20691;-86
2021/08/18 00:07:33;;;;;;;18.00;14.17;;;16.90;85.90;;;;;;5018140;28;20303;-87
2021/08/18 00:09:59;;;;;;;16.37;14.30;;;16.90;86.20;;;;;;5019611;28;20213;-86
2021/08/18 00:12:25;;;;;;;15.97;14.00;;;16.90;85.80;;;;;;5020789;28;20210;-86
2021/08/18 00:14:51;;;;;;;19.73;14.80;;;16.90;85.30;;;;;;5021829;28;20245;-84
2021/08/18 00:17:18;;;;;;;18.47;14.90;;;16.70;86.50;;;;;;5021370;28;20193;-87
2021/08/18 00:19:44;;;;;;;16.20;14.53;;;16.60;86.50;;;;;;5020697;28;20723;-86
2021/08/18 00:22:10;;;;;;;17.67;14.40;;;16.50;87.60;;;;;;5019987;28;20217;-86
2021/08/18 00:24:36;;;;;;;17.13;14.63;;;16.50;87.90;;;;;;5037111;28;20283;-87
2021/08/18 00:27:01;;;;;;;20.00;14.70;;;16.30;88.20;;;;;;5019250;28;20683;-86
2021/08/18 00:29:27;;;;;;;18.30;15.37;;;16.40;87.50;;;;;;5020794;28;20200;-86
2021/08/18 00:31:53;;;;;;;19.37;14.10;;;16.40;86.80;;;;;;5020287;28;20275;-87
2021/08/18 00:34:19;;;;;;;17.07;14.67;;;16.40;86.90;;;;;;5035857;28;20258;-86
2021/08/18 00:36:44;;;;;;;16.33;14.63;;;16.50;86.30;;;;;;5020184;28;20275;-87
2021/08/18 00:39:10;;;;;;;17.60;14.60;;;16.50;87.50;;;;;;5036751;28;20199;-86
2021/08/18 00:41:36;;;;;;;17.57;14.70;;;16.50;86.90;;;;;;5021661;28;20297;-86
2021/08/18 00:44:02;;;;;;;20.30;15.43;;;16.50;86.80;;;;;;5020658;28;20209;-86
2021/08/18 00:46:27;;;;;;;18.07;15.30;;;16.40;86.80;;;;;;5020141;28;20209;-86
2021/08/18 00:48:53;;;;;;;17.00;14.90;;;16.30;86.70;;;;;;5019447;28;20259;-87
2021/08/18 00:51:19;;;;;;;20.40;15.87;;;16.40;87.00;;;;;;5019541;28;20221;-86
2021/08/18 00:53:45;;;;;;;21.97;16.10;;;16.30;87.20;;;;;;5018322;28;20674;-87
2021/08/18 00:56:12;;;;;;;21.37;16.43;;;16.30;87.30;;;;;;5019693;28;20209;-86
2021/08/18 00:58:38;;;;;;;19.70;16.00;;;16.20;87.80;;;;;;5019211;28;20194;-87
2021/08/18 01:01:04;;;;;;;19.23;14.67;;;16.20;88.30;;;;;;5018309;28;20228;-85
2021/08/18 01:03:30;;;;;;;20.80;14.57;;;16.20;87.80;;;;;;5017094;28;20280;-87
2021/08/18 01:05:56;;;;;;;19.33;14.90;;;16.30;88.20;;;;;;5019784;28;20182;-87
2021/08/18 01:08:22;;;;;;;20.13;14.80;;;16.10;88.40;;;;;;5017285;28;20192;-84
2021/08/18 01:10:48;;;;;;;18.33;14.60;;;16.20;88.80;;;;;;5018032;28;20252;-86
2021/08/18 01:13:14;;;;;;;18.37;14.80;;;16.10;88.60;;;;;;5021526;28;20209;-84
2021/08/18 01:15:40;;;;;;;18.70;15.40;;;16.10;88.50;;;;;;5021016;28;20201;-86
2021/08/18 01:18:06;;;;;;;16.80;14.33;;;16.00;89.70;;;;;;5022860;28;20194;-84
2021/08/18 01:20:35;;;;;;;18.27;14.93;;;15.90;89.60;;;;;;5025642;28;20544;-86
2021/08/18 01:23:04;;;;;;;17.80;12.87;;;16.00;89.50;;;;;;5017382;28;20221;-86
2021/08/18 01:25:30;;;;;;;14.67;13.07;;;16.00;89.00;;;;;;5023279;28;20194;-86
2021/08/18 01:28:01;;;;;;;16.87;12.97;;;16.00;90.20;;;;;;5026914;28;20205;-83
2021/08/18 01:30:28;;;;;;;18.07;13.33;;;16.00;90.00;;;;;;5023916;28;20204;-86
2021/08/18 01:33:15;;;;;;;19.67;13.53;;;15.90;91.30;;;;;;5021421;28;20198;-86
2021/08/18 01:35:44;;;;;;;16.77;13.17;;;15.80;91.80;;;;;;5023367;28;20196;-86
2021/08/18 01:38:12;;;;;;;14.77;13.10;;;15.90;91.00;;;;;;5024710;28;20750;-86
2021/08/18 01:40:40;;;;;;;16.87;12.63;;;15.90;91.90;;;;;;5022556;28;20791;-86
2021/08/18 01:43:07;;;;;;;15.20;13.70;;;15.90;91.20;;;;;;5022832;28;20225;-87
2021/08/18 01:45:35;;;;;;;16.17;12.80;;;15.90;91.00;;;;;;5022323;28;20190;-86
2021/08/18 01:48:10;;;;;;;15.77;12.97;;;15.90;91.60;;;;;;5023736;28;20197;-87
2021/08/18 01:50:36;;;;;;;16.53;11.73;;;15.90;90.50;;;;;;5024450;28;20257;-86
2021/08/18 01:53:02;;;;;;;14.63;12.90;;;15.80;90.10;;;;;;5022146;28;20206;-86
2021/08/18 01:55:28;;;;;;;18.03;13.40;;;15.90;91.00;;;;;;5022181;28;20618;-86
2021/08/18 01:57:56;;;;;;;14.90;13.17;;;15.90;91.00;;;;;;5021073;28;20663;-87
2021/08/18 02:00:22;;;;;;;20.27;13.67;;;15.80;91.10;;;;;;5041953;28;20206;-86
2021/08/18 02:02:47;;;;;;;16.30;13.10;;;15.90;91.30;;;;;;5021679;28;20309;-87
2021/08/18 02:05:13;;;;;;;19.83;14.90;;;15.90;91.50;;;;;;5022560;28;20193;-86
2021/08/18 02:07:39;;;;;;;20.77;14.13;;;15.90;91.60;;;;;;5020241;28;20190;-86
2021/08/18 02:10:08;;;;;;;17.50;14.93;;;16.00;90.70;;;;;;5021745;28;20248;-86
2021/08/18 02:12:35;;;;;;;17.10;14.37;;;15.90;90.60;;;;;;5021290;28;20216;-85
2021/08/18 02:15:01;;;;;;;17.80;14.50;;;16.00;91.20;;;;;;5022347;28;20195;-86
2021/08/18 02:17:27;;;;;;;17.93;13.80;;;16.00;91.20;;;;;;5021403;28;20249;-87
2021/08/18 02:19:53;;;;;;;16.80;13.93;;;16.00;90.80;;;;;;5019153;28;20196;-87
2021/08/18 02:22:18;;;;;;;16.80;13.30;;;16.00;91.40;;;;;;5019960;28;20252;-87
2021/08/18 02:24:44;;;;;;;18.03;13.67;;;15.90;92.00;;;;;;5023436;28;20201;-87
2021/08/18 02:27:10;;;;;;;16.90;14.93;;;16.00;91.30;;;;;;5017799;28;20646;-86
2021/08/18 02:29:35;;;;;;;16.73;13.27;;;15.80;91.40;;;;;;5021097;28;20203;-86
2021/08/18 02:32:01;;;;;;;17.73;13.97;;;15.90;91.70;;;;;;5018462;28;20237;-86
2021/08/18 02:34:27;;;;;;;21.63;14.33;;;15.80;91.60;;;;;;5019027;28;20186;-86
2021/08/18 02:36:52;;;;;;;16.63;12.93;;;15.90;90.80;;;;;;5020644;28;20212;-86
2021/08/18 02:39:18;;;;;;;14.20;12.70;;;15.90;90.70;;;;;;5020614;28;20580;-87
2021/08/18 02:41:44;;;;;;;18.03;12.23;;;15.90;91.10;;;;;;5035884;28;20370;-86
2021/08/18 02:44:09;;;;;;;16.90;13.90;;;15.90;90.80;;;;;;5020763;28;20221;-86
2021/08/18 02:46:35;;;;;;;15.70;12.57;;;15.90;90.80;;;;;;5020227;28;20259;-87
2021/08/18 02:49:01;;;;;;;15.70;12.93;;;15.80;91.40;;;;;;5020388;28;20193;-86
2021/08/18 02:51:27;;;;;;;18.43;13.57;;;15.80;91.10;;;;;;5021041;28;20303;-86
2021/08/18 02:53:52;;;;;;;17.40;13.27;;;15.80;91.90;;;;;;5020217;28;20216;-86
2021/08/18 02:56:18;;;;;;;20.43;12.57;;;15.80;91.40;;;;;;5021216;28;20270;-87
2021/08/18 02:58:43;;;;;;;15.20;12.60;;;15.80;91.90;;;;;;5022442;28;20243;-87
2021/08/18 03:01:09;;;;;;;14.83;12.10;;;15.80;91.20;;;;;;5020450;28;20225;-86
2021/08/18 03:03:35;;;;;;;15.33;12.73;;;15.80;91.70;;;;;;5034825;28;20248;-86
2021/08/18 03:06:00;;;;;;;18.30;13.27;;;15.80;92.90;;;;;;5037442;28;20211;-85
2021/08/18 03:08:26;;;;;;;17.73;14.37;;;15.80;93.20;;;;;;5019462;28;20778;-87
2021/08/18 03:10:52;;;;;;;19.77;15.80;;;15.80;93.50;;;;;;5021192;28;20284;-86
2021/08/18 03:13:17;;;;;;;18.23;14.90;;;15.80;93.70;;;;;;5021018;28;20218;-86
2021/08/18 03:15:43;;;;;;;20.60;15.80;;;15.70;94.40;;;;;;5018773;28;20686;-86
2021/08/18 03:18:09;;;;;;;23.27;16.10;;;15.70;94.40;;;;;;5020044;28;20204;-86
2021/08/18 03:20:35;;;;;;;21.23;15.63;;;15.70;94.60;;;;;;5023959;28;20568;-87
2021/08/18 03:23:00;;;;;;;20.00;15.63;;;15.70;94.20;;;;;;5018939;28;20259;-86
2021/08/18 03:25:26;;;;;;;20.77;15.73;;;15.60;94.30;;;;;;5018032;28;20219;-86
2021/08/18 03:27:52;;;;;;;20.07;15.97;;;15.60;94.30;;;;;;5019187;28;20213;-86
2021/08/18 03:30:18;;;;;;;20.87;15.63;;;15.70;94.00;;;;;;5017813;28;20220;-86
2021/08/18 03:32:43;;;;;;;21.67;17.17;;;15.70;94.30;;;;;;5019028;28;20208;-86
2021/08/18 03:35:10;;;;;;;21.13;16.50;;;15.70;93.90;;;;;;5020629;28;20588;-86
2021/08/18 03:37:35;;;;;;;20.50;15.80;;;15.60;94.00;;;;;;5017523;28;20428;-87
2021/08/18 03:40:02;;;;;;;21.97;16.00;;;15.70;93.90;;;;;;5019040;28;20210;-86
2021/08/18 03:42:28;;;;;;;19.10;15.43;;;15.60;94.60;;;;;;5019982;28;20232;-87
2021/08/18 03:44:54;;;;;;;20.30;17.40;;;15.60;94.40;;;;;;5019635;28;20193;-86
2021/08/18 03:47:20;;;;;;;19.93;16.47;;;15.60;94.30;;;;;;5020167;28;20213;-87
2021/08/18 03:49:45;;;;;;;26.47;16.50;;;15.60;95.00;;;;;;5018858;28;20200;-87
2021/08/18 03:52:11;;;;;;;19.30;16.33;;;15.60;94.80;;;;;;5020428;28;20217;-87
2021/08/18 03:54:37;;;;;;;19.83;15.70;;;15.50;95.60;;;;;;5019697;28;20267;-86
2021/08/18 03:57:02;;;;;;;21.87;16.60;;;15.50;95.90;;;;;;5020178;28;20198;-87
2021/08/18 03:59:28;;;;;;;19.70;15.17;;;15.40;95.80;;;;;;5020267;28;20240;-86
2021/08/18 04:01:54;;;;;;;21.80;16.50;;;15.50;95.50;;;;;;5018838;28;20784;-86
2021/08/18 04:04:19;;;;;;;19.47;16.00;;;15.40;96.20;;;;;;5017180;28;20206;-87
2021/08/18 04:06:45;;;;;;;19.60;16.20;;;15.50;96.10;;;;;;5020144;28;20185;-86
2021/08/18 04:09:11;;;;;;;20.70;16.13;;;15.50;96.20;;;;;;5019806;28;20200;-86
2021/08/18 04:11:36;;;;;;;21.07;16.57;;;15.40;95.80;;;;;;5017014;28;20208;-86
2021/08/18 04:14:02;;;;;;;21.57;17.07;;;15.40;96.20;;;;;;5019197;28;20262;-86
2021/08/18 04:16:28;;;;;;;19.40;15.60;;;15.40;96.30;;;;;;5019729;28;20351;-86
2021/08/18 04:18:53;;;;;;;20.23;17.07;;;15.40;96.60;;;;;;5018638;28;20191;-86
2021/08/18 04:21:19;;;;;;;20.27;17.00;;;15.40;96.70;;;;;;5019586;28;20700;-86
2021/08/18 04:23:45;;;;;;;19.23;15.87;;;15.30;96.80;;;;;;5016414;28;20233;-86
2021/08/18 04:26:11;;;;;;;20.60;16.27;;;15.40;96.30;;;;;;5016908;28;20270;-86
2021/08/18 04:28:36;;;;;;;18.37;15.00;;;15.40;96.70;;;;;;5017782;28;20188;-87
2021/08/18 04:31:02;;;;;;;21.87;15.80;;;15.40;97.20;;;;;;5016145;28;20224;-87
2021/08/18 04:33:28;;;;;;;18.67;15.73;;;15.40;96.80;;;;;;5016332;28;20192;-86
2021/08/18 04:35:54;;;;;;;23.03;16.63;;;15.30;97.00;;;;;;5014888;28;20229;-86
2021/08/18 04:38:20;;;;;;;19.80;16.30;;;15.40;97.10;;;;;;5018821;28;20210;-86
2021/08/18 04:40:45;;;;;;;18.47;15.90;;;15.40;96.80;;;;;;5016959;28;20565;-86
2021/08/18 04:43:12;;;;;;;19.60;15.50;;;15.40;96.40;;;;;;5017211;28;20223;-87
2021/08/18 04:45:39;;;;;;;17.77;15.23;;;15.50;96.30;;;;;;5017826;28;20283;-86
2021/08/18 04:48:05;;;;;;;17.60;15.70;;;15.50;96.50;;;;;;5018241;28;20189;-86
2021/08/18 04:50:31;;;;;;;18.80;16.10;;;15.50;96.40;;;;;;5017777;28;20240;-86
2021/08/18 04:52:57;;;;;;;19.67;15.67;;;15.40;96.50;;;;;;5016622;28;20225;-86
2021/08/18 04:55:22;;;;;;;18.53;14.90;;;15.40;97.10;;;;;;5018118;28;20225;-86
2021/08/18 04:57:48;;;;;;;19.40;15.47;;;15.40;96.90;;;;;;5023021;28;20207;-88
2021/08/18 05:00:18;;;;;;;17.93;14.80;;;15.50;96.80;;;;;;5026321;28;20198;-86
2021/08/18 05:02:45;;;;;;;17.80;15.13;;;15.50;96.90;;;;;;5022574;28;20216;-86
2021/08/18 05:05:11;;;;;;;18.83;15.03;;;15.40;96.90;;;;;;5023784;28;20243;-86
2021/08/18 05:07:37;;;;;;;18.00;15.13;;;15.50;97.20;;;;;;5020024;28;20196;-87
2021/08/18 05:10:04;;;;;;;18.17;15.20;;;15.30;97.80;;;;;;5026295;28;20592;-85
2021/08/18 05:12:30;;;;;;;21.00;14.87;;;15.50;97.50;;;;;;5025242;28;20625;-84
2021/08/18 05:14:57;;;;;;;20.23;13.93;;;15.40;96.90;;;;;;5023834;28;20666;-86
2021/08/18 05:17:23;;;;;;;19.83;14.73;;;15.40;98.00;;;;;;5025229;28;20777;-85
2021/08/18 05:19:48;;;;;;;19.70;13.87;;;15.40;98.40;;;;;;5040508;28;20197;-85
2021/08/18 05:22:14;;;;;;;16.57;13.73;;;15.40;98.20;;;;;;5022642;28;20240;-85
2021/08/18 05:24:40;;;;;;;17.13;14.50;;;15.30;98.60;;;;;;5019093;28;20216;-86
2021/08/18 05:27:06;;;;;;;15.93;13.33;;;15.50;97.70;;;;;;5022065;28;20205;-85
2021/08/18 05:29:32;;;;;;;17.03;13.90;;;15.40;98.00;;;;;;5021600;28;20283;-85
2021/08/18 05:31:58;;;;;;;16.83;14.17;;;15.50;98.50;;;;;;5021314;28;20546;-85
2021/08/18 05:34:23;;;;;;;18.17;14.23;;;15.40;98.80;;;;;;5018328;28;20195;-86
2021/08/18 05:36:49;;;;;;;19.47;14.63;;;15.50;99.10;;;;;;5021838;28;20267;-84
2021/08/18 05:39:15;;;;;;;18.43;14.17;;;15.40;99.30;;;;;;5020954;28;20656;-84
2021/08/18 05:41:40;;;;;;;15.53;13.90;;;15.40;99.70;;;;;;5019332;28;20230;-85
2021/08/18 05:44:06;;;;;;;17.80;14.10;;;15.40;99.70;;;;;;5020527;28;20207;-85
2021/08/18 05:46:32;;;;;;;15.60;13.80;;;15.40;99.50;;;;;;5021560;28;20193;-85
2021/08/18 05:48:57;;;;;;;19.67;13.87;;;15.40;99.20;;;;;;5013355;28;20208;-85
2021/08/18 05:51:23;;;;;;;14.83;12.77;;;15.50;99.90;;;;;;5016478;28;20213;-84
2021/08/18 05:53:50;;;;;;;19.13;14.33;;;15.30;99.90;;;;;;5017816;28;20193;-86
2021/08/18 05:56:19;;;;;;;17.37;13.00;;;15.40;99.90;;;;;;5019169;28;20284;-85
2021/08/18 05:58:45;;;;;;;16.40;13.13;;;15.40;99.90;;;;;;5034596;28;20189;-85
2021/08/18 06:01:11;;;;;;;13.07;11.67;;;15.50;99.90;;;;;;5016341;28;20236;-83
2021/08/18 06:03:37;;;;;;;13.57;12.10;;;15.50;99.70;;;;;;5018566;28;20399;-85
2021/08/18 06:06:03;;;;;;;14.07;11.47;;;15.50;99.90;;;;;;5019212;28;20253;-85
2021/08/18 06:08:29;;;;;;;13.73;12.10;;;15.50;99.90;;;;;;5016273;28;20688;-85
2021/08/18 06:10:55;;;;;;;13.63;11.63;;;15.50;99.90;;;;;;5018272;28;20580;-86
2021/08/18 06:13:22;;;;;;;14.23;11.93;;;15.50;99.90;;;;;;5017765;28;20238;-84
2021/08/18 06:15:48;;;;;;;14.10;12.00;;;15.50;99.90;;;;;;5014975;28;20208;-86
2021/08/18 06:18:13;;;;;;;13.40;12.00;;;15.50;99.90;;;;;;5016666;28;20198;-85
2021/08/18 06:20:39;;;;;;;14.80;11.70;;;15.50;99.90;;;;;;5015386;28;20196;-86
2021/08/18 06:23:04;;;;;;;14.13;12.17;;;15.40;99.90;;;;;;5016879;28;20223;-84
2021/08/18 06:25:30;;;;;;;14.50;11.70;;;15.50;99.90;;;;;;5018427;28;20188;-86
2021/08/18 06:27:56;;;;;;;14.77;11.40;;;15.50;99.90;;;;;;5019429;28;20264;-85
2021/08/18 06:30:21;;;;;;;13.20;11.80;;;15.50;99.90;;;;;;5018607;28;20281;-86
2021/08/18 06:32:47;;;;;;;14.77;11.00;;;15.50;99.90;;;;;;5018112;28;20212;-86
2021/08/18 06:35:13;;;;;;;13.80;11.70;;;15.50;99.90;;;;;;5000411;28;20816;-86
2021/08/18 06:37:39;;;;;;;13.70;11.50;;;15.60;99.90;;;;;;5018487;28;20193;-86
2021/08/18 06:40:07;;;;;;;13.10;10.97;;;15.60;99.90;;;;;;5018405;28;20197;-85
2021/08/18 06:42:33;;;;;;;12.40;10.47;;;15.70;99.40;;;;;;5019128;28;20330;-87
2021/08/18 06:44:58;;;;;;;12.27;10.90;;;15.60;99.90;;;;;;5016111;28;20200;-85
2021/08/18 06:47:24;;;;;;;11.53;9.70;;;15.60;99.90;;;;;;5018164;28;20262;-86
2021/08/18 06:49:50;;;;;;;13.00;10.17;;;15.60;99.90;;;;;;5015632;28;20201;-86
2021/08/18 06:52:15;;;;;;;12.23;10.93;;;15.70;99.90;;;;;;5017277;28;20209;-85
2021/08/18 06:54:41;;;;;;;13.27;11.00;;;15.70;99.90;;;;;;5017818;28;20334;-86
2021/08/18 06:57:07;;;;;;;12.00;10.43;;;15.70;99.90;;;;;;5018948;28;20198;-86
2021/08/18 06:59:32;;;;;;;13.10;10.53;;;15.80;99.90;;;;;;5021775;28;20193;-86
2021/08/18 07:01:58;;;;;;;12.00;10.80;;;15.80;99.70;;;;;;5022186;28;20213;-85
2021/08/18 07:04:24;;;;;;;12.23;10.87;;;15.70;99.60;;;;;;5019743;28;20215;-86
2021/08/18 07:06:50;;;;;;;12.43;10.37;;;15.70;99.60;;;;;;5017568;28;20251;-86
2021/08/18 07:09:15;;;;;;;13.17;11.73;;;15.70;99.70;;;;;;5020158;28;20197;-86
2021/08/18 07:11:41;;;;;;;11.90;10.70;;;15.70;99.10;;;;;;5018939;28;20270;-84
2021/08/18 07:14:07;;;;;;;12.70;10.43;;;15.70;99.20;;;;;;5018429;28;20363;-86
2021/08/18 07:16:36;;;;;;;12.63;9.80;;;15.80;99.10;;;;;;5021424;28;20189;-87
2021/08/18 07:19:03;;;;;;;12.50;10.20;;;15.90;98.10;;;;;;5020074;28;20281;-86
2021/08/18 07:21:28;;;;;;;12.77;9.97;;;15.90;97.70;;;;;;5018905;28;20210;-85
2021/08/18 07:23:56;;;;;;;15.17;10.37;;;15.90;98.00;;;;;;5021477;28;20223;-86
2021/08/18 07:26:25;;;;;;;11.87;9.00;;;16.00;97.60;;;;;;5017456;28;20281;-85
2021/08/18 07:28:54;;;;;;;11.13;8.70;;;16.00;97.60;;;;;;5017590;28;20193;-86
2021/08/18 07:31:20;;;;;;;14.50;10.60;;;15.90;97.90;;;;;;5019347;28;20249;-85
2021/08/18 07:33:46;;;;;;;10.60;9.50;;;15.90;98.00;;;;;;5020231;28;20193;-85
2021/08/18 07:36:11;;;;;;;10.57;9.17;;;15.90;98.10;;;;;;5017276;28;20212;-86
2021/08/18 07:38:37;;;;;;;11.13;9.47;;;16.00;97.80;;;;;;5016941;28;20200;-85
2021/08/18 07:41:03;;;;;;;10.23;8.57;;;15.90;98.60;;;;;;5019825;28;20228;-86
2021/08/18 07:43:29;;;;;;;11.17;8.93;;;15.90;98.30;;;;;;5019135;28;20209;-85
2021/08/18 07:45:55;;;;;;;11.27;10.00;;;15.90;98.90;;;;;;5017705;28;20257;-86
2021/08/18 07:48:20;;;;;;;9.83;8.80;;;16.00;98.30;;;;;;5020195;28;20185;-85
2021/08/18 07:50:46;;;;;;;10.30;9.13;;;16.10;98.50;;;;;;5017107;28;20214;-87
2021/08/18 07:53:12;;;;;;;10.30;9.17;;;16.10;98.70;;;;;;5018279;28;20309;-85
2021/08/18 07:55:38;;;;;;;13.00;8.90;;;16.20;98.10;;;;;;5020228;28;20197;-84
2021/08/18 07:58:03;;;;;;;11.50;9.13;;;16.10;99.20;;;;;;5018314;28;20212;-84
2021/08/18 08:00:31;;;;;;;10.83;8.50;;;16.10;97.90;;;;;;5017961;28;20642;-83
2021/08/18 08:02:57;;;;;;;10.57;9.37;;;16.00;97.90;;;;;;5019325;28;20203;-85
2021/08/18 08:05:22;;;;;;;11.07;9.00;;;16.10;98.20;;;;;;5017236;28;20196;-85
2021/08/18 08:07:48;;;;;;;9.67;8.50;;;16.20;98.20;;;;;;5018935;28;20194;-85
2021/08/18 08:10:14;;;;;;;10.93;8.20;;;16.20;97.90;;;;;;5016778;28;20196;-85
2021/08/18 08:12:40;;;;;;;9.13;8.13;;;16.30;96.70;;;;;;5015252;28;20201;-84
2021/08/18 08:15:08;;;;;;;9.90;8.27;;;16.50;96.10;;;;;;5015775;28;20195;-85
2021/08/18 08:17:34;;;;;;;10.03;8.87;;;16.60;95.60;;;;;;5017672;28;20229;-86
2021/08/18 08:20:00;;;;;;;10.87;8.03;;;16.60;96.20;;;;;;5016249;28;20672;-86
2021/08/18 08:22:26;;;;;;;8.67;7.73;;;16.60;95.80;;;;;;5016533;28;20209;-86
2021/08/18 08:24:52;;;;;;;12.63;7.63;;;16.70;95.50;;;;;;5018464;28;20189;-85
2021/08/18 08:27:18;;;;;;;10.50;8.00;;;16.70;95.40;;;;;;5017181;28;20205;-85
2021/08/18 08:29:45;;;;;;;8.93;7.50;;;16.80;95.30;;;;;;5015890;28;20192;-86
2021/08/18 08:32:11;;;;;;;10.50;7.90;;;16.90;95.70;;;;;;5017677;28;20229;-84
2021/08/18 08:34:37;;;;;;;9.57;7.47;;;17.00;93.90;;;;;;5016472;28;20746;-85
2021/08/18 08:37:03;;;;;;;8.50;7.30;;;17.00;94.30;;;;;;5016409;28;20244;-85
2021/08/18 08:39:29;;;;;;;9.77;7.13;;;17.00;93.40;;;;;;5031916;28;20197;-85
2021/08/18 08:41:55;;;;;;;12.93;8.00;;;17.10;92.40;;;;;;5032795;28;20254;-86
2021/08/18 08:44:24;;;;;;;8.67;7.83;;;17.10;93.10;;;;;;5017453;28;20743;-86
2021/08/18 08:46:53;;;;;;;8.40;7.50;;;17.00;93.30;;;;;;5016815;28;20774;-85
2021/08/18 08:49:20;;;;;;;9.23;7.80;;;17.00;93.30;;;;;;5019418;28;20189;-85
2021/08/18 08:51:48;;;;;;;7.73;6.93;;;17.00;93.60;;;;;;5019747;28;20201;-86
2021/08/18 08:54:15;;;;;;;8.33;7.00;;;17.30;93.10;;;;;;5017354;28;20202;-85
2021/08/18 08:56:41;;;;;;;7.77;6.77;;;17.40;91.40;;;;;;5018994;28;20183;-87
2021/08/18 08:59:07;;;;;;;7.70;6.60;;;17.60;90.40;;;;;;5020905;28;20211;-86
2021/08/18 09:01:58;;;;;;;8.10;6.77;;;17.70;90.10;;;;;;5020198;28;20241;-84
2021/08/18 09:04:34;;;;;;;8.87;6.83;;;17.80;89.80;;;;;;5037187;28;20198;-85
2021/08/18 09:07:07;;;;;;;8.60;7.70;;;17.90;89.70;;;;;;5020459;28;20191;-84
2021/08/18 09:09:34;;;;;;;8.40;7.50;;;18.10;90.40;;;;;;5018144;28;20643;-85
2021/08/18 09:12:08;;;;;;;8.67;7.77;;;18.20;88.50;;;;;;5021142;28;20238;-85
2021/08/18 09:14:34;;;;;;;9.13;8.10;;;18.00;89.30;;;;;;5020699;28;20694;-87
2021/08/18 09:16:59;;;;;;;8.00;7.20;;;17.80;90.40;;;;;;5018706;28;20198;-85
2021/08/18 09:19:30;;;;;;;11.23;7.60;;;17.90;91.40;;;;;;5021313;28;20193;-85
2021/08/18 09:22:06;;;;;;;10.73;8.33;;;17.90;89.60;;;;;;5017029;28;20217;-86
2021/08/18 09:24:33;;;;;;;9.03;8.13;;;17.90;89.70;;;;;;5016712;28;20221;-86
2021/08/18 09:27:08;;;;;;;10.23;9.17;;;18.10;90.60;;;;;;5017376;28;20768;-85
2021/08/18 09:29:44;;;;;;;9.93;8.50;;;18.00;88.40;;;;;;5016150;28;20192;-85
2021/08/18 09:32:21;;;;;;;8.83;7.93;;;17.90;88.80;;;;;;5013429;28;20209;-85
2021/08/18 09:34:55;;;;;;;8.70;7.13;;;18.00;88.20;;;;;;5013676;28;20193;-85
2021/08/18 09:37:23;;;;;;;8.00;6.93;;;17.90;87.00;;;;;;5014889;28;20290;-85
2021/08/18 09:39:49;;;;;;;10.43;8.53;;;17.90;86.40;;;;;;5013641;28;20198;-85
2021/08/18 09:42:30;;;;;;;10.80;8.27;;;18.00;87.70;;;;;;5018401;28;20220;-85
2021/08/18 09:45:18;;;;;;;11.67;9.20;;;18.00;88.50;;;;;;5018469;28;20190;-85
2021/08/18 09:47:54;;;;;;;10.93;8.47;;;18.20;86.90;;;;;;5016849;28;20193;-85
2021/08/18 09:50:22;;;;;;;10.70;9.60;;;18.00;87.40;;;;;;5016805;28;20193;-85
2021/08/18 09:52:48;;;;;;;9.87;8.43;;;18.10;88.50;;;;;;5016698;28;20219;-85
2021/08/18 09:55:14;;;;;;;11.60;9.17;;;18.10;87.90;;;;;;5021295;28;20264;-85
2021/08/18 09:57:40;;;;;;;11.67;9.17;;;17.90;88.90;;;;;;5021340;28;20189;-86
2021/08/18 10:00:07;;;;;;;10.70;8.87;;;18.10;87.70;;;;;;5023114;28;20197;-86
2021/08/18 10:02:33;;;;;;;10.43;8.53;;;18.10;87.40;;;;;;5022720;28;20245;-86
2021/08/18 10:05:01;;;;;;;10.10;8.60;;;18.10;87.50;;;;;;5020357;28;20216;-85
2021/08/18 10:07:28;;;;;;;9.80;8.13;;;18.00;87.80;;;;;;5020929;28;20228;-85
2021/08/18 10:09:54;;;;;;;9.03;8.13;;;17.90;88.20;;;;;;5023183;28;20214;-86
2021/08/18 10:12:20;;;;;;;9.00;8.10;;;18.10;88.30;;;;;;5018785;28;20295;-85
2021/08/18 10:14:46;;;;;;;16.93;8.33;;;18.30;87.50;;;;;;5018030;28;20283;-85
2021/08/18 10:17:11;;;;;;;9.10;8.13;;;18.20;86.60;;;;;;5019813;28;20192;-86
2021/08/18 10:19:38;;;;;;;10.43;8.20;;;18.20;87.00;;;;;;5018984;28;20236;-87
2021/08/18 10:22:04;;;;;;;9.60;8.33;;;18.40;86.30;;;;;;5018207;28;20708;-85
2021/08/18 10:24:38;;;;;;;10.27;8.00;;;18.40;86.70;;;;;;5018080;28;20209;-86
2021/08/18 10:27:05;;;;;;;8.20;7.40;;;18.50;86.60;;;;;;5016539;28;20178;-85
2021/08/18 10:29:38;;;;;;;7.65;6.85;;;18.70;85.70;;;;;;5017168;28;20192;-85
2021/08/18 10:32:09;;;;;;;5.80;5.30;;;18.90;83.90;;;;;;5018899;28;20706;-85
2021/08/18 10:34:37;;;;;;;6.63;5.13;;;19.00;82.00;;;;;;5032128;28;20217;-86
2021/08/18 10:37:05;;;;;;;5.80;5.20;;;18.90;83.20;;;;;;5017903;28;20211;-85
2021/08/18 10:39:36;;;;;;;6.18;5.57;;;18.90;83.20;;;;;;5015009;28;20191;-85
2021/08/18 10:42:15;;;;;;;6.80;5.60;;;18.80;85.40;;;;;;5016338;28;20651;-87
2021/08/18 10:44:53;;;;;;;8.33;5.73;;;18.70;86.40;;;;;;5015972;28;20239;-85
2021/08/18 10:47:34;;;;;;;8.07;6.18;;;18.80;84.70;;;;;;5017791;28;20186;-85
2021/08/18 10:49:59;;;;;;;6.57;5.87;;;18.80;85.50;;;;;;5018847;28;20254;-85
2021/08/18 10:52:28;;;;;;;6.70;5.22;;;18.80;86.30;;;;;;5014919;28;20777;-84
2021/08/18 10:55:08;;;;;;;6.57;5.60;;;18.60;86.90;;;;;;5017082;28;20296;-85
2021/08/18 10:57:50;;;;;;;6.33;5.57;;;18.40;87.80;;;;;;5017949;28;20210;-85
2021/08/18 11:00:22;;;;;;;6.07;5.10;;;18.50;87.10;;;;;;5017470;28;20191;-86
2021/08/18 11:03:06;;;;;;;5.83;4.70;;;18.60;86.50;;;;;;5016974;28;20215;-86
2021/08/18 11:05:37;;;;;;;6.03;4.70;;;18.60;85.80;;;;;;5016853;28;20197;-85
2021/08/18 11:08:17;;;;;;;4.97;4.50;;;18.80;87.00;;;;;;5015508;28;20257;-85
2021/08/18 11:10:54;;;;;;;3.85;3.40;;;19.10;85.20;;;;;;5016276;28;20199;-86
2021/08/18 11:13:43;;;;;;;4.78;3.63;;;19.50;82.50;;;;;;5016369;28;20200;-85
2021/08/18 11:16:26;;;;;;;3.27;3.00;;;19.40;83.60;;;;;;5017763;28;20211;-85
2021/08/18 11:18:54;;;;;;;3.50;3.20;;;19.30;82.40;;;;;;5015377;28;20198;-85
2021/08/18 11:21:34;;;;;;;3.20;2.93;;;19.20;82.00;;;;;;5015094;28;20232;-87
2021/08/18 11:24:04;;;;;;;3.67;3.10;;;19.00;82.30;;;;;;5016233;28;20246;-85
2021/08/18 11:26:35;;;;;;;3.17;2.87;;;19.00;82.30;;;;;;5017752;28;20643;-86
2021/08/18 11:29:07;;;;;;;6.50;3.50;;;18.90;83.90;;;;;;5016624;28;20195;-86
2021/08/18 11:31:42;;;;;;;3.33;3.03;;;19.00;82.20;;;;;;5013760;28;20270;-86
2021/08/18 11:34:18;;;;;;;3.38;3.08;;;19.20;81.30;;;;;;5017755;28;20273;-88
2021/08/18 11:36:44;;;;;;;3.20;2.80;;;19.30;81.70;;;;;;5015260;28;20203;-84
2021/08/18 11:39:11;;;;;;;4.22;2.80;;;19.30;80.20;;;;;;5015131;28;20265;-85
2021/08/18 11:41:42;;;;;;;3.28;2.92;;;19.40;82.20;;;;;;5015669;28;20232;-87
2021/08/18 11:44:14;;;;;;;3.20;2.63;;;19.20;81.20;;;;;;5018301;28;20217;-86
2021/08/18 11:46:40;;;;;;;3.30;2.80;;;19.40;82.50;;;;;;5016844;28;20242;-86
2021/08/18 11:49:08;;;;;;;3.78;2.67;;;19.60;80.60;;;;;;5018958;28;20193;-86
2021/08/18 11:51:34;;;;;;;2.90;2.70;;;19.60;80.70;;;;;;5019168;28;20298;-86
2021/08/18 11:54:00;;;;;;;3.28;3.00;;;19.80;79.90;;;;;;5017017;28;20351;-85
2021/08/18 11:56:28;;;;;;;3.28;2.50;;;20.00;79.20;;;;;;5016164;28;20205;-85
2021/08/18 11:59:03;;;;;;;2.90;2.70;;;19.90;78.10;;;;;;5030896;28;20201;-85
2021/08/18 12:01:30;;;;;;;2.88;2.60;;;19.90;78.20;;;;;;5013960;28;20281;-86
2021/08/18 12:03:56;;;;;;;2.65;2.45;;;19.90;78.00;;;;;;5013760;28;20209;-86
2021/08/18 12:06:30;;;;;;;3.03;2.60;;;19.80;79.20;;;;;;5016049;28;20239;-86
2021/08/18 12:08:56;;;;;;;2.72;2.40;;;19.80;78.60;;;;;;5014962;28;20547;-86
2021/08/18 12:11:34;;;;;;;3.65;2.40;;;19.50;80.10;;;;;;5013925;28;20292;-86
2021/08/18 12:14:09;;;;;;;2.85;2.65;;;19.40;81.40;;;;;;5016256;28;20746;-86
2021/08/18 12:16:35;;;;;;;3.28;2.83;;;19.20;83.30;;;;;;5014785;28;20203;-86
2021/08/18 12:19:18;;;;;;;3.37;3.03;;;19.20;84.10;;;;;;5015379;28;20197;-85
2021/08/18 12:21:46;;;;;;;3.63;2.83;;;19.20;85.00;;;;;;5017407;28;20274;-86
2021/08/18 12:24:17;;;;;;;2.88;2.67;;;19.30;86.50;;;;;;5018347;28;20209;-86
2021/08/18 12:26:46;;;;;;;2.90;2.70;;;19.50;86.60;;;;;;5015978;28;20240;-85
2021/08/18 12:29:20;;;;;;;2.67;2.47;;;19.80;87.50;;;;;;5014703;28;20197;-85
2021/08/18 12:31:55;;;;;;;3.00;2.80;;;20.00;84.10;;;;;;5016627;28;20288;-86
2021/08/18 12:34:35;;;;;;;2.72;2.53;;;20.00;85.40;;;;;;5013380;28;20197;-86